Jack Guidry — WDF2422 — position and weather

sailwx.info

Track history (hours):
 
Tides and Currents Weather Stations Pressure Air Temp Water Temp Dewpoint Dewpoint Depression Visibility Wind Speed Wind Dir Waves Ship Positions

Jack Guidry

Owner: Enterprise Marine Services, LLC, San Antonio, TX. More information available from US FCC via Universal Licensing System and Coast Guard Vessel Documentation Center.

Last reported at 2015-Mar-30 17:28 UTC. Time now 2015-Mar-30 17:37 UTC.
Position N 29°47' W 095°05'.

Length 22 m; draft 2.5 m.

Type: Other ship. MMSI: 367003430.

Date/timePositionNaut miles runAvg speedWind from/ knotsBaromVisibWave heightAir tempDewpointWater temp
2015-Mar-30 17:28N 29°47' W 095°05'0 0.0
2015-Mar-30 16:32N 29°47' W 095°05'0 0.0
2015-Mar-30 13:23N 29°47' W 095°05'0 0.1
2015-Mar-30 12:33N 29°47' W 095°05'0 0.1
2015-Mar-30 11:32N 29°47' W 095°05'0 0.0
2015-Mar-30 10:26N 29°47' W 095°05'0 0.0
2015-Mar-30 09:33N 29°47' W 095°05'0 0.0
2015-Mar-30 08:14N 29°47' W 095°05'0 0.0
2015-Mar-30 06:31N 29°47' W 095°05'1 1.0
2015-Mar-30 05:29N 29°46' W 095°05'0 0.0
2015-Mar-30 04:30N 29°46' W 095°05'2 2.4
2015-Mar-30 03:33N 29°44' W 095°03'4 4.1
2015-Mar-30 02:33N 29°41' W 095°00'0 0.0
2015-Mar-30 01:33N 29°41' W 095°00'0 0.0
2015-Mar-30 00:33N 29°41' W 095°00'0 0.0
2015-Mar-29 23:33N 29°41' W 095°00'0 0.0
2015-Mar-29 22:33N 29°41' W 095°00'0 0.0
2015-Mar-29 21:33N 29°41' W 095°00'0 0.0
2015-Mar-29 20:33N 29°41' W 095°00'0 0.0
2015-Mar-29 19:33N 29°41' W 095°00'0 0.0
2015-Mar-29 18:29N 29°41' W 095°00'0 0.0
2015-Mar-29 17:33N 29°41' W 095°00'0 0.0
2015-Mar-29 16:33N 29°41' W 095°00'0 0.0
2015-Mar-29 15:33N 29°41' W 095°00'0 0.0
2015-Mar-29 14:33N 29°41' W 095°00'0 0.0
2015-Mar-29 13:08N 29°41' W 095°00'0 0.2
2015-Mar-29 12:33N 29°41' W 095°00'1 1.0
2015-Mar-29 11:33N 29°41' W 094°59'1 1.4
2015-Mar-29 10:33N 29°42' W 095°00'6 5.6
2015-Mar-29 09:32N 29°46' W 095°05'0 0.0
2015-Mar-29 08:25N 29°46' W 095°05'0 0.0
2015-Mar-29 07:11N 29°46' W 095°05'0 0.2
2015-Mar-29 06:27N 29°46' W 095°05'5 6.0
2015-Mar-29 05:33N 29°42' W 095°01'2 1.6
2015-Mar-29 04:33N 29°41' W 094°59'7 6.9
2015-Mar-29 03:33N 29°46' W 095°05'1 1.0
2015-Mar-29 02:33N 29°47' W 095°05'1 0.1
2015-Mar-28 18:27N 29°47' W 095°04'1 0.7
2015-Mar-28 17:31N 29°47' W 095°05'0 0.1
2015-Mar-28 16:20N 29°47' W 095°05'0 0.0
2015-Mar-27 21:32N 29°47' W 095°05'0 0.0
2015-Mar-27 20:33N 29°47' W 095°05'0 0.1
2015-Mar-27 19:33N 29°47' W 095°05'0 0.1
2015-Mar-27 18:33N 29°47' W 095°05'0 0.0
2015-Mar-27 17:34N 29°47' W 095°05'0 0.0
2015-Mar-27 16:33N 29°47' W 095°05'0 0.0
2015-Mar-27 15:29N 29°47' W 095°05'0 0.0
2015-Mar-27 14:30N 29°47' W 095°05'0 0.0
2015-Mar-27 13:33N 29°47' W 095°05'0 0.0
2015-Mar-26 20:24N 29°47' W 095°05'0 0.0
2015-Mar-26 19:20N 29°47' W 095°05'0 0.0
2015-Mar-26 16:27N 29°47' W 095°05'0 0.0
2015-Mar-26 10:26N 29°47' W 095°05'0 0.0
2015-Mar-26 09:33N 29°47' W 095°05'0 0.0
2015-Mar-26 07:28N 29°47' W 095°05'0 0.0
2015-Mar-26 06:29N 29°47' W 095°05'0 0.0
2015-Mar-25 19:08N 29°47' W 095°05'0 0.0
2015-Mar-25 18:24N 29°47' W 095°05'0 0.0
2015-Mar-25 17:33N 29°47' W 095°05'0 0.0
2015-Mar-25 16:33N 29°47' W 095°05'0 0.0
2015-Mar-25 15:33N 29°47' W 095°05'0 0.0
2015-Mar-25 14:33N 29°47' W 095°05'0 0.0
2015-Mar-25 13:33N 29°47' W 095°05'0 0.1
2015-Mar-25 12:17N 29°47' W 095°05'0 0.0
2015-Mar-24 18:33N 29°47' W 095°05'0 0.0
2015-Mar-24 17:33N 29°47' W 095°05'0 0.0
2015-Mar-24 16:33N 29°47' W 095°05'0 0.0
2015-Mar-24 15:33N 29°47' W 095°05'0 0.0
2015-Mar-24 14:33N 29°47' W 095°05'0 0.0
2015-Mar-24 13:33N 29°47' W 095°05'0 0.0
2015-Mar-24 12:33N 29°47' W 095°05'0 0.0
2015-Mar-24 11:33N 29°47' W 095°05'0 0.0
2015-Mar-24 10:33N 29°47' W 095°05'0 0.0
2015-Mar-24 09:33N 29°47' W 095°05'0 0.0
2015-Mar-24 08:33N 29°47' W 095°05'0 0.0
2015-Mar-24 07:33N 29°47' W 095°05'0 0.0
2015-Mar-24 06:33N 29°47' W 095°05'0 0.0
2015-Mar-24 05:33N 29°47' W 095°05'0 0.0
2015-Mar-24 04:33N 29°47' W 095°05'0 0.0
2015-Mar-24 03:33N 29°47' W 095°05'0 0.0
2015-Mar-24 02:33N 29°47' W 095°05'0 0.0
2015-Mar-24 01:33N 29°47' W 095°05'0 0.0
2015-Mar-24 00:33N 29°47' W 095°05'0 0.0
2015-Mar-23 23:33N 29°47' W 095°05'0 0.0
2015-Mar-23 22:33N 29°47' W 095°05'0 0.1
2015-Mar-23 21:33N 29°47' W 095°05'0 0.1
2015-Mar-23 20:31N 29°47' W 095°05'0 0.0
2015-Mar-23 19:33N 29°47' W 095°05'0 0.0
2015-Mar-23 18:33N 29°47' W 095°05'1 0.9
2015-Mar-23 17:27N 29°46' W 095°05'1 1.0
2015-Mar-23 16:33N 29°47' W 095°05'0 0.1
2015-Mar-23 15:33N 29°47' W 095°05'0 0.1
2015-Mar-23 14:33N 29°47' W 095°05'0 0.0
2015-Mar-23 13:33N 29°47' W 095°05'0 0.0
2015-Mar-23 05:06N 29°47' W 095°05'1 1.4
2015-Mar-23 04:06N 29°46' W 095°06'0 0.0
2015-Mar-22 00:20N 29°46' W 095°06'0 0.0
2015-Mar-21 02:18N 29°46' W 095°06'0 0.0
2015-Mar-21 01:08N 29°46' W 095°06'0 0.0
2015-Mar-21 00:26N 29°46' W 095°06'0 0.0
2015-Mar-20 23:31N 29°46' W 095°06'1 0.5
2015-Mar-20 22:26N 29°46' W 095°05'1 1.2
2015-Mar-20 21:24N 29°47' W 095°05'0 0.0
2015-Mar-20 18:33N 29°47' W 095°05'0 0.0
2015-Mar-20 17:33N 29°47' W 095°05'  
Track history (hours):
 
Tides and Currents Weather Stations Pressure Air Temp Water Temp Dewpoint Dewpoint Depression Visibility Wind Speed Wind Dir Waves Ship Positions

Jack Guidry

Owner: Enterprise Marine Services, LLC, San Antonio, TX. More information available from US FCC via Universal Licensing System and Coast Guard Vessel Documentation Center.

Last reported at 2015-Mar-30 17:28 UTC. Time now 2015-Mar-30 17:37 UTC.
Position N 29°47' W 095°05'.

Length 22 m; draft 2.5 m.

Type: Other ship. MMSI: 367003430.

Date/timePositionNaut miles runAvg speedWind from/ knotsBaromVisibWave heightAir tempDewpointWater temp
2015-Mar-30 17:28N 29°47' W 095°05'0 0.0
2015-Mar-30 16:32N 29°47' W 095°05'0 0.0
2015-Mar-30 13:23N 29°47' W 095°05'0 0.1
2015-Mar-30 12:33N 29°47' W 095°05'0 0.1
2015-Mar-30 11:32N 29°47' W 095°05'0 0.0
2015-Mar-30 10:26N 29°47' W 095°05'0 0.0
2015-Mar-30 09:33N 29°47' W 095°05'0 0.0
2015-Mar-30 08:14N 29°47' W 095°05'0 0.0
2015-Mar-30 06:31N 29°47' W 095°05'1 1.0
2015-Mar-30 05:29N 29°46' W 095°05'0 0.0
2015-Mar-30 04:30N 29°46' W 095°05'2 2.4
2015-Mar-30 03:33N 29°44' W 095°03'4 4.1
2015-Mar-30 02:33N 29°41' W 095°00'0 0.0
2015-Mar-30 01:33N 29°41' W 095°00'0 0.0
2015-Mar-30 00:33N 29°41' W 095°00'0 0.0
2015-Mar-29 23:33N 29°41' W 095°00'0 0.0
2015-Mar-29 22:33N 29°41' W 095°00'0 0.0
2015-Mar-29 21:33N 29°41' W 095°00'0 0.0
2015-Mar-29 20:33N 29°41' W 095°00'0 0.0
2015-Mar-29 19:33N 29°41' W 095°00'0 0.0
2015-Mar-29 18:29N 29°41' W 095°00'0 0.0
2015-Mar-29 17:33N 29°41' W 095°00'0 0.0
2015-Mar-29 16:33N 29°41' W 095°00'0 0.0
2015-Mar-29 15:33N 29°41' W 095°00'0 0.0
2015-Mar-29 14:33N 29°41' W 095°00'0 0.0
2015-Mar-29 13:08N 29°41' W 095°00'0 0.2
2015-Mar-29 12:33N 29°41' W 095°00'1 1.0
2015-Mar-29 11:33N 29°41' W 094°59'1 1.4
2015-Mar-29 10:33N 29°42' W 095°00'6 5.6
2015-Mar-29 09:32N 29°46' W 095°05'0 0.0
2015-Mar-29 08:25N 29°46' W 095°05'0 0.0
2015-Mar-29 07:11N 29°46' W 095°05'0 0.2
2015-Mar-29 06:27N 29°46' W 095°05'5 6.0
2015-Mar-29 05:33N 29°42' W 095°01'2 1.6
2015-Mar-29 04:33N 29°41' W 094°59'7 6.9
2015-Mar-29 03:33N 29°46' W 095°05'1 1.0
2015-Mar-29 02:33N 29°47' W 095°05'1 0.1
2015-Mar-28 18:27N 29°47' W 095°04'1 0.7
2015-Mar-28 17:31N 29°47' W 095°05'0 0.1
2015-Mar-28 16:20N 29°47' W 095°05'0 0.0
2015-Mar-27 21:32N 29°47' W 095°05'0 0.0
2015-Mar-27 20:33N 29°47' W 095°05'0 0.1
2015-Mar-27 19:33N 29°47' W 095°05'0 0.1
2015-Mar-27 18:33N 29°47' W 095°05'0 0.0
2015-Mar-27 17:34N 29°47' W 095°05'0 0.0
2015-Mar-27 16:33N 29°47' W 095°05'0 0.0
2015-Mar-27 15:29N 29°47' W 095°05'0 0.0
2015-Mar-27 14:30N 29°47' W 095°05'0 0.0
2015-Mar-27 13:33N 29°47' W 095°05'0 0.0
2015-Mar-26 20:24N 29°47' W 095°05'0 0.0
2015-Mar-26 19:20N 29°47' W 095°05'0 0.0
2015-Mar-26 16:27N 29°47' W 095°05'0 0.0
2015-Mar-26 10:26N 29°47' W 095°05'0 0.0
2015-Mar-26 09:33N 29°47' W 095°05'0 0.0
2015-Mar-26 07:28N 29°47' W 095°05'0 0.0
2015-Mar-26 06:29N 29°47' W 095°05'0 0.0
2015-Mar-25 19:08N 29°47' W 095°05'0 0.0
2015-Mar-25 18:24N 29°47' W 095°05'0 0.0
2015-Mar-25 17:33N 29°47' W 095°05'0 0.0
2015-Mar-25 16:33N 29°47' W 095°05'0 0.0
2015-Mar-25 15:33N 29°47' W 095°05'0 0.0
2015-Mar-25 14:33N 29°47' W 095°05'0 0.0
2015-Mar-25 13:33N 29°47' W 095°05'0 0.1
2015-Mar-25 12:17N 29°47' W 095°05'0 0.0
2015-Mar-24 18:33N 29°47' W 095°05'0 0.0
2015-Mar-24 17:33N 29°47' W 095°05'0 0.0
2015-Mar-24 16:33N 29°47' W 095°05'0 0.0
2015-Mar-24 15:33N 29°47' W 095°05'0 0.0
2015-Mar-24 14:33N 29°47' W 095°05'0 0.0
2015-Mar-24 13:33N 29°47' W 095°05'0 0.0
2015-Mar-24 12:33N 29°47' W 095°05'0 0.0
2015-Mar-24 11:33N 29°47' W 095°05'0 0.0
2015-Mar-24 10:33N 29°47' W 095°05'0 0.0
2015-Mar-24 09:33N 29°47' W 095°05'0 0.0
2015-Mar-24 08:33N 29°47' W 095°05'0 0.0
2015-Mar-24 07:33N 29°47' W 095°05'0 0.0
2015-Mar-24 06:33N 29°47' W 095°05'0 0.0
2015-Mar-24 05:33N 29°47' W 095°05'0 0.0
2015-Mar-24 04:33N 29°47' W 095°05'0 0.0
2015-Mar-24 03:33N 29°47' W 095°05'0 0.0
2015-Mar-24 02:33N 29°47' W 095°05'0 0.0
2015-Mar-24 01:33N 29°47' W 095°05'0 0.0
2015-Mar-24 00:33N 29°47' W 095°05'0 0.0
2015-Mar-23 23:33N 29°47' W 095°05'0 0.0
2015-Mar-23 22:33N 29°47' W 095°05'0 0.1
2015-Mar-23 21:33N 29°47' W 095°05'0 0.1
2015-Mar-23 20:31N 29°47' W 095°05'0 0.0
2015-Mar-23 19:33N 29°47' W 095°05'0 0.0
2015-Mar-23 18:33N 29°47' W 095°05'1 0.9
2015-Mar-23 17:27N 29°46' W 095°05'1 1.0
2015-Mar-23 16:33N 29°47' W 095°05'0 0.1
2015-Mar-23 15:33N 29°47' W 095°05'0 0.1
2015-Mar-23 14:33N 29°47' W 095°05'0 0.0
2015-Mar-23 13:33N 29°47' W 095°05'0 0.0
2015-Mar-23 05:06N 29°47' W 095°05'1 1.4
2015-Mar-23 04:06N 29°46' W 095°06'0 0.0
2015-Mar-22 00:20N 29°46' W 095°06'0 0.0
2015-Mar-21 02:18N 29°46' W 095°06'0 0.0
2015-Mar-21 01:08N 29°46' W 095°06'0 0.0
2015-Mar-21 00:26N 29°46' W 095°06'0 0.0
2015-Mar-20 23:31N 29°46' W 095°06'1 0.5
2015-Mar-20 22:26N 29°46' W 095°05'1 1.2
2015-Mar-20 21:24N 29°47' W 095°05'0 0.0
2015-Mar-20 18:33N 29°47' W 095°05'0 0.0
2015-Mar-20 17:33N 29°47' W 095°05'  

Dump ship's entire track history